createdAt,value
2019-03-25T00:01:51.739Z,100422.09
2019-03-25T00:06:56.472Z,100421.72
2019-03-25T00:12:01.123Z,100420.25
2019-03-25T00:17:05.866Z,100405.06
2019-03-25T00:22:10.456Z,100396.98
2019-03-25T00:27:15.100Z,100388.52
2019-03-25T00:32:19.725Z,100388.52
2019-03-25T00:37:24.349Z,100385.83
2019-03-25T00:42:28.901Z,100368.80
2019-03-25T00:47:33.558Z,100365.62
2019-03-25T00:52:38.189Z,100362.55
2019-03-25T00:57:42.745Z,100355.81
2019-03-25T01:02:47.513Z,100355.81
2019-03-25T01:07:52.151Z,100355.33
2019-03-25T01:12:57.075Z,100351.77
2019-03-25T01:18:01.618Z,100348.79
2019-03-25T01:23:06.341Z,100338.87
2019-03-25T01:28:10.973Z,100319.78
2019-03-25T01:33:15.655Z,100315.59
2019-03-25T01:38:20.274Z,100315.59
2019-03-25T01:43:24.825Z,100294.65
2019-03-25T01:48:29.432Z,100285.22
2019-03-25T01:53:34.114Z,100285.22
2019-03-25T01:58:38.674Z,100254.88
2019-03-25T02:03:43.371Z,100264.72
2019-03-25T02:08:47.962Z,100234.88
2019-03-25T02:13:52.633Z,100223.84
2019-03-25T02:18:57.284Z,100231.28
2019-03-25T02:24:01.906Z,100225.98
2019-03-25T02:29:06.544Z,100202.41
2019-03-25T02:34:11.376Z,100202.34
2019-03-25T02:39:16.030Z,100187.31
2019-03-25T02:44:20.851Z,100187.31
2019-03-25T02:49:25.447Z,100198.74
2019-03-25T02:54:30.144Z,100193.96
2019-03-25T02:59:34.761Z,100188.66
2019-03-25T03:04:39.400Z,100181.56
2019-03-25T03:09:43.996Z,100172.74
2019-03-25T03:14:48.580Z,100171.97
2019-03-25T03:19:55.263Z,100171.97
2019-03-25T03:24:59.580Z,100157.23
2019-03-25T03:30:04.397Z,100152.81
2019-03-25T03:35:09.278Z,100150.33
2019-03-25T03:40:14.638Z,100141.14
2019-03-25T03:45:19.352Z,100137.22
2019-03-25T03:50:28.884Z,100137.22
2019-03-25T03:55:34.966Z,100137.22
2019-03-25T04:00:39.650Z,100136.45
2019-03-25T04:05:44.327Z,100123.11
2019-03-25T04:10:49.060Z,100110.25
2019-03-25T04:15:53.581Z,100104.87
2019-03-25T04:20:58.231Z,100105.94
2019-03-25T04:26:02.835Z,100105.94
2019-03-25T04:31:07.383Z,100090.27
2019-03-25T04:36:12.028Z,100067.99
2019-03-25T04:41:16.643Z,100067.99
2019-03-25T04:46:21.238Z,100051.44
2019-03-25T04:51:25.864Z,100038.62
2019-03-25T04:56:39.030Z,100040.42
2019-03-25T05:01:36.941Z,100040.42
2019-03-25T05:06:41.527Z,100033.87
2019-03-25T05:11:46.097Z,100013.06
2019-03-25T05:16:50.657Z,100008.25
2019-03-25T05:21:55.195Z,99985.21
2019-03-25T05:26:59.780Z,99988.31
2019-03-25T05:32:05.447Z,99996.99
2019-03-25T05:37:10.098Z,99990.72
2019-03-25T05:42:14.775Z,99990.72
2019-03-25T05:47:19.436Z,99968.09
2019-03-25T05:52:24.139Z,99970.29
2019-03-25T05:57:28.763Z,99961.36
2019-03-25T06:02:33.348Z,99947.53
2019-03-25T06:07:37.991Z,99931.20
2019-03-25T06:12:42.690Z,99947.26
2019-03-25T06:17:47.336Z,99943.47
2019-03-25T06:22:51.869Z,99943.47
2019-03-25T06:27:56.517Z,99938.17
2019-03-25T06:33:11.935Z,99915.63
2019-03-25T06:38:07.904Z,99915.63
2019-03-25T06:43:12.458Z,99926.91
2019-03-25T06:48:17.039Z,99926.91
2019-03-25T06:53:21.683Z,99921.12
2019-03-25T06:58:26.928Z,99917.22
2019-03-25T07:03:31.712Z,99915.38
2019-03-25T07:08:36.310Z,99914.48
2019-03-25T07:13:40.882Z,99904.34
2019-03-25T07:18:45.691Z,99921.94
2019-03-25T07:23:50.275Z,99921.94
2019-03-25T07:28:54.867Z,99929.03
2019-03-25T07:33:59.416Z,99919.91
2019-03-25T07:39:05.589Z,99959.03
2019-03-25T07:44:10.187Z,99988.63
2019-03-25T07:49:14.758Z,99985.39
2019-03-25T07:54:19.392Z,99985.39
2019-03-25T07:59:24.098Z,99973.53
2019-03-25T08:04:28.888Z,99949.66
2019-03-25T08:09:33.523Z,99949.66
2019-03-25T08:14:38.130Z,99950.09
2019-03-25T08:19:42.784Z,99950.09
2019-03-25T08:24:47.541Z,99963.74
2019-03-25T08:29:52.219Z,99971.05
2019-03-25T08:34:57.038Z,99986.52
2019-03-25T08:40:01.724Z,99985.27
2019-03-25T08:45:08.433Z,99985.27
2019-03-25T08:50:13.362Z,99986.78
2019-03-25T08:55:18.093Z,99986.78
2019-03-25T09:00:22.835Z,99988.98
2019-03-25T09:05:27.579Z,99988.98
2019-03-25T09:10:32.301Z,100000.31
2019-03-25T09:15:36.954Z,100002.86
2019-03-25T09:20:42.084Z,100002.86
2019-03-25T09:25:46.863Z,100004.53
2019-03-25T09:31:20.768Z,100015.48
2019-03-25T09:36:25.602Z,100016.52
2019-03-25T09:41:30.283Z,100025.98
2019-03-25T09:46:36.843Z,100002.98
2019-03-25T09:51:41.587Z,100041.25
2019-03-25T09:56:46.287Z,100040.21
2019-03-25T10:01:52.619Z,100025.06
2019-03-25T10:06:57.646Z,100010.52
2019-03-25T10:12:02.294Z,100010.52
2019-03-25T10:17:06.929Z,100023.63
2019-03-25T10:22:11.581Z,100030.61
2019-03-25T10:27:16.172Z,100033.55
2019-03-25T10:32:20.966Z,100033.55
2019-03-25T10:37:25.547Z,100019.38
2019-03-25T10:42:30.283Z,100030.87
2019-03-25T10:47:34.922Z,100030.87
2019-03-25T10:52:39.588Z,100014.73
2019-03-25T10:57:44.136Z,100019.38
2019-03-25T11:02:48.777Z,100011.97
2019-03-25T11:07:53.473Z,99993.17
2019-03-25T11:12:58.024Z,100014.45
2019-03-25T11:18:02.685Z,100018.30
2019-03-25T11:23:07.385Z,100010.40
2019-03-25T11:28:12.394Z,100007.11
2019-03-25T11:33:17.082Z,100007.97
2019-03-25T11:38:21.800Z,99980.94
2019-03-25T11:43:26.338Z,99987.66
2019-03-25T11:48:30.954Z,99994.84
2019-03-25T11:53:35.635Z,99990.23
2019-03-25T11:58:40.186Z,99968.47
2019-03-25T12:03:44.896Z,99968.47
2019-03-25T12:08:49.463Z,99974.22
2019-03-25T12:13:54.237Z,100008.48
2019-03-25T12:18:58.839Z,100018.11
2019-03-25T12:24:03.548Z,100021.43
2019-03-25T12:29:08.158Z,100019.20
2019-03-25T12:34:12.750Z,100012.63
2019-03-25T12:39:17.350Z,100002.08
2019-03-25T12:44:21.962Z,99995.48
2019-03-25T12:49:26.691Z,99991.06
2019-03-25T12:54:31.249Z,100002.89
2019-03-25T12:59:41.291Z,100032.78
2019-03-25T13:04:42.156Z,100054.17
2019-03-25T13:09:46.794Z,100053.31
2019-03-25T13:14:51.343Z,100053.31
2019-03-25T13:19:55.892Z,100087.84
2019-03-25T13:25:00.473Z,100079.94
2019-03-25T13:30:05.960Z,100069.98
2019-03-25T13:35:10.678Z,100072.38
2019-03-25T13:40:15.798Z,100072.38
2019-03-25T13:45:20.465Z,100074.21
2019-03-25T13:50:25.140Z,100082.50
2019-03-25T13:55:29.679Z,100074.92
2019-03-25T14:00:39.318Z,100071.27
2019-03-25T14:05:44.014Z,100071.27
2019-03-25T14:10:48.624Z,100089.66
2019-03-25T14:15:53.253Z,100076.50
2019-03-25T14:20:57.888Z,100080.42
2019-03-25T14:26:02.446Z,100080.42
2019-03-25T14:31:07.021Z,100087.32
2019-03-25T14:36:11.605Z,100088.23
2019-03-25T14:41:16.160Z,100093.19
2019-03-25T14:46:20.766Z,100102.11
2019-03-25T14:51:25.432Z,100105.23
2019-03-25T14:56:31.544Z,100114.47
2019-03-25T15:01:36.573Z,100114.47
2019-03-25T15:06:41.302Z,100119.60
2019-03-25T15:11:45.950Z,100119.60
2019-03-25T15:16:50.500Z,100135.45
2019-03-25T15:21:55.240Z,100148.64
2019-03-25T15:26:59.799Z,100148.64
2019-03-25T15:32:04.644Z,100163.16
2019-03-25T15:37:09.309Z,100174.20
2019-03-25T15:42:13.996Z,100174.09
2019-03-25T15:47:19.411Z,100186.00
2019-03-25T15:52:24.009Z,100187.98
2019-03-25T15:57:28.579Z,100192.62
2019-03-25T16:02:33.263Z,100204.72
2019-03-25T16:07:37.821Z,100206.92
2019-03-25T16:12:42.529Z,100213.22
2019-03-25T16:17:47.082Z,100213.22
2019-03-25T16:22:51.636Z,100253.33
2019-03-25T16:27:56.192Z,100253.33
2019-03-25T16:33:00.789Z,100279.23
2019-03-25T16:38:05.425Z,100296.25
2019-03-25T16:43:10.142Z,100296.25
2019-03-25T16:48:14.801Z,100308.08
2019-03-25T16:53:19.384Z,100309.00
2019-03-25T16:58:24.083Z,100315.68
2019-03-25T17:03:28.673Z,100324.63
2019-03-25T17:08:33.266Z,100325.89
2019-03-25T17:13:37.958Z,100337.30
2019-03-25T17:18:42.589Z,100344.86
2019-03-25T17:23:47.226Z,100347.83
2019-03-25T17:28:51.812Z,100369.63
2019-03-25T17:33:56.462Z,100369.63
2019-03-25T17:39:01.052Z,100396.28
2019-03-25T17:44:05.712Z,100402.98
2019-03-25T17:49:10.302Z,100413.69
2019-03-25T17:54:14.919Z,100433.40
2019-03-25T17:59:19.494Z,100433.40
2019-03-25T18:04:24.088Z,100442.69
2019-03-25T18:09:28.731Z,100478.15
2019-03-25T18:14:33.300Z,100479.17
2019-03-25T18:19:37.982Z,100490.12
2019-03-25T18:24:42.581Z,100508.95
2019-03-25T18:29:47.202Z,100509.48
2019-03-25T18:34:51.872Z,100533.61
2019-03-25T18:39:56.469Z,100548.94
2019-03-25T18:45:01.251Z,100557.88
2019-03-25T18:50:06.337Z,100557.88
2019-03-25T18:55:13.453Z,100578.52
2019-03-25T19:00:40.215Z,100580.18
2019-03-25T19:05:44.837Z,100584.99
2019-03-25T19:10:49.435Z,100587.30
2019-03-25T19:15:54.087Z,100598.56
2019-03-25T19:20:58.714Z,100611.45
2019-03-25T19:26:03.368Z,100617.09
2019-03-25T19:31:08.065Z,100617.09
2019-03-25T19:36:12.725Z,100619.97
2019-03-25T19:41:22.904Z,100634.50
2019-03-25T19:46:23.707Z,100647.23
2019-03-25T19:51:28.415Z,100649.97
2019-03-25T19:56:33.053Z,100642.55
2019-03-25T20:01:37.702Z,100656.44
2019-03-25T20:06:42.436Z,100656.44
2019-03-25T20:11:47.078Z,100674.42
2019-03-25T20:16:51.867Z,100681.56
2019-03-25T20:22:05.265Z,100697.89
2019-03-25T20:27:09.859Z,100711.10
2019-03-25T20:38:06.562Z,100719.20
2019-03-25T20:43:11.188Z,100720.45
2019-03-25T20:48:15.801Z,100734.34
2019-03-25T20:53:20.505Z,100742.13
2019-03-25T20:58:25.184Z,100747.72
2019-03-25T21:03:29.723Z,100754.53
2019-03-25T21:08:34.479Z,100758.77
2019-03-25T21:13:39.121Z,100762.64
2019-03-25T21:18:43.736Z,100775.91
2019-03-25T21:23:48.284Z,100774.09
2019-03-25T21:28:52.867Z,100774.09
2019-03-25T21:33:57.619Z,100795.73
2019-03-25T21:39:02.307Z,100794.88
2019-03-25T21:44:06.977Z,100794.88
2019-03-25T21:49:11.588Z,100802.38
2019-03-25T21:54:16.162Z,100810.83
2019-03-25T21:59:20.801Z,100813.53
2019-03-25T22:04:25.358Z,100813.53
2019-03-25T22:09:29.934Z,100827.38
2019-03-25T22:14:34.559Z,100832.50
2019-03-25T22:19:39.129Z,100832.50
2019-03-25T22:24:43.683Z,100830.10
2019-03-25T22:29:48.267Z,100836.43
2019-03-25T22:34:52.849Z,100848.55
2019-03-25T22:39:57.456Z,100846.45
2019-03-25T22:45:02.068Z,100846.45
2019-03-25T22:50:10.027Z,100856.37
2019-03-25T22:55:14.584Z,100863.00
2019-03-25T23:00:23.102Z,100868.11
2019-03-25T23:05:27.825Z,100872.64
2019-03-25T23:10:32.515Z,100882.07
2019-03-25T23:15:37.088Z,100889.73
2019-03-25T23:20:41.761Z,100899.76
2019-03-25T23:25:46.556Z,100906.49
2019-03-25T23:30:51.197Z,100894.47
2019-03-25T23:35:55.792Z,100906.22
2019-03-25T23:41:00.480Z,100906.22
2019-03-25T23:46:05.363Z,100907.56
2019-03-25T23:51:10.009Z,100910.74
2019-03-25T23:56:14.621Z,100926.59
